createdAt,value
2022-12-11T00:00:03.826Z,2.33
2022-12-11T00:02:50.183Z,2.67
2022-12-11T00:05:36.586Z,3.03
2022-12-11T00:08:23.107Z,2.60
2022-12-11T00:11:11.549Z,2.80
2022-12-11T00:13:57.768Z,2.53
2022-12-11T00:16:44.265Z,2.97
2022-12-11T00:19:30.520Z,2.27
2022-12-11T00:22:16.612Z,1.63
2022-12-11T00:25:02.738Z,1.60
2022-12-11T00:27:50.552Z,2.37
2022-12-11T00:30:39.524Z,2.77
2022-12-11T00:33:27.647Z,2.17
2022-12-11T00:36:15.314Z,2.33
2022-12-11T00:39:02.668Z,2.67
2022-12-11T00:41:49.141Z,2.67
2022-12-11T00:44:36.907Z,3.23
2022-12-11T00:47:23.455Z,2.83
2022-12-11T00:50:09.956Z,1.83
2022-12-11T00:52:56.261Z,2.23
2022-12-11T00:55:43.250Z,3.70
2022-12-11T00:58:29.954Z,2.50
2022-12-11T01:01:18.697Z,2.80
2022-12-11T01:04:05.296Z,2.67
2022-12-11T01:06:51.685Z,3.07
2022-12-11T01:09:55.445Z,2.37
2022-12-11T01:12:42.263Z,2.47
2022-12-11T01:15:29.201Z,2.00
2022-12-11T01:18:16.783Z,2.10
2022-12-11T01:21:06.559Z,1.67
2022-12-11T01:23:53.037Z,2.60
2022-12-11T01:26:39.376Z,2.40
2022-12-11T01:29:25.946Z,1.80
2022-12-11T01:32:12.545Z,1.50
2022-12-11T01:35:01.284Z,3.37
2022-12-11T01:37:47.492Z,2.27
2022-12-11T01:40:33.985Z,2.40
2022-12-11T01:43:20.245Z,2.23
2022-12-11T01:46:07.756Z,2.10
2022-12-11T01:48:55.037Z,1.37
2022-12-11T01:51:43.843Z,1.30
2022-12-11T01:54:30.962Z,2.33
2022-12-11T01:57:17.736Z,1.70
2022-12-11T02:00:05.401Z,2.33
2022-12-11T02:02:51.583Z,1.40
2022-12-11T02:05:38.186Z,2.10
2022-12-11T02:08:25.784Z,1.40
2022-12-11T02:11:15.235Z,2.80
2022-12-11T02:14:06.175Z,2.00
2022-12-11T02:16:54.989Z,1.23
2022-12-11T02:19:48.514Z,1.10
2022-12-11T02:22:47.613Z,2.47
2022-12-11T02:25:38.135Z,2.10
2022-12-11T02:28:29.045Z,1.30
2022-12-11T02:31:17.655Z,1.10
2022-12-11T02:34:06.034Z,1.33
2022-12-11T02:36:54.005Z,1.77
2022-12-11T02:39:41.647Z,1.97
2022-12-11T02:42:29.706Z,1.40
2022-12-11T02:45:17.765Z,1.90
2022-12-11T02:48:05.764Z,1.13
2022-12-11T02:50:54.013Z,0.90
2022-12-11T02:53:41.535Z,1.97
2022-12-11T02:56:31.617Z,1.30
2022-12-11T02:59:20.320Z,1.13
2022-12-11T03:02:08.314Z,1.67
2022-12-11T03:04:55.187Z,1.27
2022-12-11T03:07:42.785Z,1.00
2022-12-11T03:10:29.447Z,0.90
2022-12-11T03:13:17.664Z,1.10
2022-12-11T03:16:11.179Z,1.10
2022-12-11T03:19:03.237Z,1.60
2022-12-11T03:21:54.113Z,0.97
2022-12-11T03:24:42.346Z,1.67
2022-12-11T03:27:31.661Z,2.00
2022-12-11T03:30:18.724Z,1.20
2022-12-11T03:33:06.864Z,1.40
2022-12-11T03:35:57.159Z,0.90
2022-12-11T03:38:48.518Z,1.20
2022-12-11T03:41:36.713Z,1.20
2022-12-11T03:44:24.866Z,1.53
2022-12-11T03:47:11.739Z,1.43
2022-12-11T03:49:59.795Z,0.90
2022-12-11T03:52:47.607Z,1.00
2022-12-11T03:55:34.174Z,0.63
2022-12-11T03:58:20.582Z,0.73
2022-12-11T04:01:09.780Z,1.27
2022-12-11T04:03:56.243Z,1.60
2022-12-11T04:06:42.738Z,0.80
2022-12-11T04:09:30.704Z,1.27
2022-12-11T04:12:16.889Z,0.80
2022-12-11T04:15:03.211Z,0.73
2022-12-11T04:18:07.025Z,1.07
2022-12-11T04:21:11.902Z,0.90
2022-12-11T04:24:16.391Z,1.63
2022-12-11T04:27:04.242Z,1.10
2022-12-11T04:29:50.783Z,0.93
2022-12-11T04:32:37.258Z,1.03
2022-12-11T04:35:23.927Z,0.90
2022-12-11T04:38:10.156Z,1.17
2022-12-11T04:41:00.365Z,1.13
2022-12-11T04:43:47.839Z,1.57
2022-12-11T04:46:34.392Z,1.13
2022-12-11T04:49:20.708Z,1.23
2022-12-11T04:52:06.857Z,1.53
2022-12-11T04:54:53.396Z,1.20
2022-12-11T04:57:40.090Z,0.90
2022-12-11T05:00:27.781Z,1.00
2022-12-11T05:03:14.362Z,0.70
2022-12-11T05:06:00.823Z,0.90
2022-12-11T05:08:47.036Z,0.90
2022-12-11T05:11:33.710Z,1.10
2022-12-11T05:14:20.283Z,1.43
2022-12-11T05:17:07.877Z,1.07
2022-12-11T05:19:54.650Z,1.50
2022-12-11T05:22:40.990Z,0.87
2022-12-11T05:25:27.019Z,0.83
2022-12-11T05:28:13.247Z,1.40
2022-12-11T05:31:00.202Z,1.40
2022-12-11T05:33:49.030Z,1.23
2022-12-11T05:36:35.344Z,1.53
2022-12-11T05:39:21.701Z,0.90
2022-12-11T05:42:07.758Z,0.97
2022-12-11T05:44:54.131Z,1.67
2022-12-11T05:47:40.629Z,1.43
2022-12-11T05:50:28.145Z,1.70
2022-12-11T05:53:14.655Z,1.20
2022-12-11T05:56:05.134Z,1.17
2022-12-11T05:58:51.770Z,0.97
2022-12-11T06:01:39.026Z,1.17
2022-12-11T06:04:25.614Z,2.07
2022-12-11T06:07:13.245Z,2.40
2022-12-11T06:09:59.657Z,1.83
2022-12-11T06:12:46.234Z,1.00
2022-12-11T06:15:33.775Z,1.40
2022-12-11T06:18:19.947Z,1.37
2022-12-11T06:21:16.040Z,1.40
2022-12-11T06:24:05.706Z,1.80
2022-12-11T06:26:52.028Z,7.97
2022-12-11T06:29:38.281Z,1.60
2022-12-11T06:32:24.424Z,2.83
2022-12-11T06:35:11.238Z,1.50
2022-12-11T06:37:58.160Z,1.90
2022-12-11T06:40:45.625Z,1.33
2022-12-11T06:43:32.024Z,1.67
2022-12-11T06:46:19.101Z,1.93
2022-12-11T06:49:05.760Z,2.27
2022-12-11T06:51:52.260Z,1.80
2022-12-11T06:54:38.444Z,1.93
2022-12-11T06:57:26.685Z,1.30
2022-12-11T07:00:13.770Z,1.57
2022-12-11T07:03:00.460Z,2.27
2022-12-11T07:05:46.925Z,2.27
2022-12-11T07:08:33.765Z,1.83
2022-12-11T07:11:21.188Z,1.63
2022-12-11T07:14:10.078Z,1.90
2022-12-11T07:16:56.325Z,1.20
2022-12-11T07:19:42.675Z,1.80
2022-12-11T07:22:29.760Z,2.10
2022-12-11T07:25:15.985Z,1.37
2022-12-11T07:28:02.144Z,3.03
2022-12-11T07:30:49.764Z,1.30
2022-12-11T07:33:35.873Z,2.07
2022-12-11T07:36:22.263Z,1.23
2022-12-11T07:39:09.146Z,1.17
2022-12-11T07:41:55.243Z,1.23
2022-12-11T07:44:41.556Z,1.27
2022-12-11T07:47:29.483Z,1.50
2022-12-11T07:50:15.691Z,1.23
2022-12-11T07:53:03.555Z,1.10
2022-12-11T07:55:49.976Z,1.50
2022-12-11T07:58:36.979Z,1.10
2022-12-11T08:01:24.269Z,1.40
2022-12-11T08:04:15.623Z,1.50
2022-12-11T08:07:02.085Z,1.33
2022-12-11T08:09:48.291Z,1.40
2022-12-11T08:12:34.827Z,0.97
2022-12-11T08:15:21.160Z,1.13
2022-12-11T08:18:07.543Z,0.97
2022-12-11T08:20:55.183Z,1.07
2022-12-11T08:23:41.898Z,1.00
2022-12-11T08:26:29.226Z,2.00
2022-12-11T08:29:15.905Z,1.13
2022-12-11T08:32:03.015Z,1.50
2022-12-11T08:34:52.271Z,1.00
2022-12-11T08:37:40.272Z,0.97
2022-12-11T08:40:26.584Z,1.20
2022-12-11T08:43:13.349Z,1.20
2022-12-11T08:45:59.677Z,0.70
2022-12-11T08:48:45.983Z,1.00
2022-12-11T08:51:32.540Z,1.30
2022-12-11T08:54:20.054Z,1.30
2022-12-11T08:57:06.340Z,1.40
2022-12-11T08:59:52.746Z,0.70
2022-12-11T09:02:39.007Z,0.97
2022-12-11T09:05:25.402Z,1.07
2022-12-11T09:08:11.669Z,1.00
2022-12-11T09:11:03.181Z,1.00
2022-12-11T09:13:50.122Z,0.90
2022-12-11T09:16:40.449Z,0.80
2022-12-11T09:19:32.081Z,1.10
2022-12-11T09:22:19.004Z,0.90
2022-12-11T09:25:05.879Z,1.10
2022-12-11T09:27:53.692Z,1.77
2022-12-11T09:30:39.932Z,1.30
2022-12-11T09:33:26.733Z,1.03
2022-12-11T09:36:13.815Z,1.50
2022-12-11T09:39:01.465Z,0.90
2022-12-11T09:41:50.847Z,1.33
2022-12-11T09:44:43.311Z,0.87
2022-12-11T09:47:32.714Z,1.23
2022-12-11T09:50:22.876Z,1.23
2022-12-11T09:53:13.148Z,1.10
2022-12-11T09:56:01.547Z,2.30
2022-12-11T09:58:55.364Z,1.03
2022-12-11T10:01:47.474Z,1.90
2022-12-11T10:04:41.559Z,0.77
2022-12-11T10:07:33.922Z,1.13
2022-12-11T10:10:22.949Z,1.27
2022-12-11T10:13:14.718Z,1.30
2022-12-11T10:16:02.318Z,1.40
2022-12-11T10:18:50.424Z,1.30
2022-12-11T10:21:39.977Z,1.60
2022-12-11T10:24:57.949Z,1.07
2022-12-11T10:27:36.752Z,1.10
2022-12-11T10:30:24.621Z,1.40
2022-12-11T10:33:16.317Z,1.60
2022-12-11T10:36:04.041Z,1.83
2022-12-11T10:38:50.638Z,2.23
2022-12-11T10:41:39.080Z,1.90
2022-12-11T10:44:26.424Z,3.00
2022-12-11T10:47:14.244Z,4.10
2022-12-11T10:50:01.280Z,3.17
2022-12-11T10:52:49.099Z,2.40
2022-12-11T10:55:45.007Z,2.13
2022-12-11T10:58:34.414Z,2.50
2022-12-11T11:01:22.698Z,3.23
2022-12-11T11:04:19.451Z,2.53
2022-12-11T11:07:11.869Z,2.90
2022-12-11T11:10:07.990Z,2.57
2022-12-11T11:12:57.028Z,2.70
2022-12-11T11:15:43.518Z,2.50
2022-12-11T11:18:30.946Z,2.60
2022-12-11T11:21:17.623Z,2.27
2022-12-11T11:24:04.865Z,2.53
2022-12-11T11:30:01.199Z,2.23
2022-12-11T11:32:47.687Z,2.13
2022-12-11T11:35:34.186Z,2.67
2022-12-11T11:38:21.378Z,2.17
2022-12-11T11:41:15.205Z,2.40
2022-12-11T11:44:05.723Z,2.90
2022-12-11T11:46:56.142Z,2.47
2022-12-11T11:49:47.336Z,2.80
2022-12-11T11:52:35.415Z,2.30
2022-12-11T11:55:28.324Z,3.50
2022-12-11T11:58:16.639Z,2.80
2022-12-11T12:01:04.556Z,3.07
2022-12-11T12:03:51.343Z,3.50
2022-12-11T12:06:50.697Z,2.93
2022-12-11T12:09:43.798Z,3.33
2022-12-11T12:12:35.418Z,2.40
2022-12-11T12:15:23.614Z,3.00
2022-12-11T12:18:15.687Z,2.53
2022-12-11T12:21:03.405Z,2.83
2022-12-11T12:23:57.909Z,2.83
2022-12-11T12:26:47.077Z,2.70
2022-12-11T12:29:44.263Z,3.10
2022-12-11T12:32:33.549Z,2.63
2022-12-11T12:35:27.295Z,2.77
2022-12-11T12:38:16.556Z,3.40
2022-12-11T12:41:08.774Z,2.53
2022-12-11T12:44:10.035Z,2.43
2022-12-11T12:46:58.852Z,2.27
2022-12-11T12:49:47.132Z,1.77
2022-12-11T12:52:36.273Z,1.70
2022-12-11T12:55:23.988Z,1.63
2022-12-11T12:58:25.553Z,1.70
2022-12-11T13:01:16.505Z,2.80
2022-12-11T13:04:04.215Z,1.50
2022-12-11T13:06:50.757Z,2.00
2022-12-11T13:09:38.680Z,1.60
2022-12-11T13:12:32.492Z,2.27
2022-12-11T13:15:30.446Z,1.70
2022-12-11T13:18:34.149Z,1.40
2022-12-11T13:21:31.522Z,1.40
2022-12-11T13:24:25.740Z,1.23
2022-12-11T13:27:23.963Z,1.60
2022-12-11T13:30:23.195Z,1.60
2022-12-11T13:33:16.000Z,1.73
2022-12-11T13:36:24.632Z,1.50
2022-12-11T13:39:18.252Z,1.60
2022-12-11T13:42:05.639Z,1.90
2022-12-11T13:44:53.787Z,1.33
2022-12-11T13:47:41.001Z,1.40
2022-12-11T13:50:29.714Z,1.50
2022-12-11T13:53:17.056Z,1.57
2022-12-11T13:56:04.254Z,1.10
2022-12-11T13:58:50.478Z,1.80
2022-12-11T14:01:37.947Z,1.60
2022-12-11T14:04:25.092Z,1.83
2022-12-11T14:07:12.247Z,2.27
2022-12-11T14:10:01.866Z,1.73
2022-12-11T14:12:50.820Z,1.70
2022-12-11T14:15:38.442Z,1.87
2022-12-11T14:18:28.636Z,1.97
2022-12-11T14:21:19.514Z,1.80
2022-12-11T14:24:06.627Z,3.20
2022-12-11T14:26:54.158Z,3.30
2022-12-11T14:29:40.491Z,3.77
2022-12-11T14:32:31.741Z,3.37
2022-12-11T14:35:24.287Z,3.97
2022-12-11T14:38:15.143Z,2.20
2022-12-11T14:41:05.104Z,1.37
2022-12-11T14:43:52.558Z,1.83
2022-12-11T14:46:40.224Z,2.67
2022-12-11T14:49:28.240Z,1.60
2022-12-11T14:52:17.958Z,3.70
2022-12-11T14:55:06.851Z,2.47
2022-12-11T14:57:55.247Z,1.83
2022-12-11T15:00:41.818Z,1.70
2022-12-11T15:03:32.481Z,2.17
2022-12-11T15:06:24.048Z,2.03
2022-12-11T15:09:17.640Z,1.90
2022-12-11T15:12:09.713Z,1.63
2022-12-11T15:14:57.337Z,1.93
2022-12-11T15:17:48.352Z,1.60
2022-12-11T15:20:37.675Z,1.93
2022-12-11T15:23:24.240Z,2.07
2022-12-11T15:26:11.769Z,2.00
2022-12-11T15:29:00.874Z,1.60
2022-12-11T15:31:47.103Z,1.50
2022-12-11T15:34:34.821Z,2.07
2022-12-11T15:37:22.352Z,2.20
2022-12-11T15:40:09.476Z,2.07
2022-12-11T15:42:57.748Z,1.60
2022-12-11T15:45:44.250Z,2.23
2022-12-11T15:48:30.670Z,1.70
2022-12-11T15:51:17.197Z,2.53
2022-12-11T15:54:03.529Z,2.70
2022-12-11T15:56:49.754Z,2.63
2022-12-11T15:59:37.699Z,1.47
2022-12-11T16:02:24.448Z,1.63
2022-12-11T16:05:11.375Z,2.87
2022-12-11T16:07:59.673Z,2.20
2022-12-11T16:10:47.020Z,1.63
2022-12-11T16:13:33.392Z,2.40
2022-12-11T16:16:21.039Z,3.63
2022-12-11T16:19:07.483Z,2.23
2022-12-11T16:21:53.902Z,1.47
2022-12-11T16:24:40.454Z,1.73
2022-12-11T16:27:26.638Z,2.60
2022-12-11T16:30:13.267Z,2.57
2022-12-11T16:33:00.844Z,2.20
2022-12-11T16:35:47.443Z,1.60
2022-12-11T16:38:33.525Z,1.60
2022-12-11T16:41:19.991Z,2.90
2022-12-11T16:44:12.290Z,2.70
2022-12-11T16:46:59.180Z,4.00
2022-12-11T16:49:46.954Z,1.70
2022-12-11T16:52:33.496Z,2.40
2022-12-11T16:55:22.303Z,2.83
2022-12-11T16:58:09.628Z,2.53
2022-12-11T17:01:02.366Z,5.60
2022-12-11T17:03:48.622Z,2.63
2022-12-11T17:06:36.598Z,2.00
2022-12-11T17:09:22.875Z,1.73
2022-12-11T17:12:09.329Z,2.97
2022-12-11T17:14:56.877Z,1.70
2022-12-11T17:17:43.450Z,1.77
2022-12-11T17:20:29.851Z,2.10
2022-12-11T17:23:17.539Z,1.80
2022-12-11T17:26:04.268Z,2.00
2022-12-11T17:28:50.675Z,1.60
2022-12-11T17:31:36.922Z,2.00
2022-12-11T17:34:23.466Z,1.50
2022-12-11T17:37:09.968Z,1.57
2022-12-11T17:39:57.934Z,1.60
2022-12-11T17:42:44.999Z,1.70
2022-12-11T17:45:31.200Z,1.70
2022-12-11T17:48:17.750Z,2.27
2022-12-11T17:51:05.615Z,2.10
2022-12-11T17:53:51.784Z,2.10
2022-12-11T17:56:39.475Z,2.03
2022-12-11T17:59:25.768Z,4.20
2022-12-11T18:02:12.302Z,7.77
2022-12-11T18:04:58.557Z,7.60
2022-12-11T18:07:44.914Z,5.67
2022-12-11T18:10:31.195Z,4.27
2022-12-11T18:13:19.315Z,4.07
2022-12-11T18:16:06.376Z,3.63
2022-12-11T18:18:52.885Z,4.30
2022-12-11T18:21:42.792Z,3.10
2022-12-11T18:24:31.939Z,2.93
2022-12-11T18:27:18.146Z,5.07
2022-12-11T18:30:06.540Z,4.93
2022-12-11T18:32:53.106Z,2.23
2022-12-11T18:35:39.394Z,3.53
2022-12-11T18:38:25.850Z,2.50
2022-12-11T18:41:13.481Z,2.30
2022-12-11T18:44:02.916Z,3.27
2022-12-11T18:46:54.689Z,6.80
2022-12-11T18:49:41.184Z,4.13
2022-12-11T18:52:27.374Z,2.60
2022-12-11T18:55:14.064Z,2.67
2022-12-11T18:58:01.043Z,2.37
2022-12-11T19:00:47.388Z,2.63
2022-12-11T19:03:35.059Z,2.60
2022-12-11T19:06:22.539Z,2.80
2022-12-11T19:09:10.305Z,1.93
2022-12-11T19:11:56.930Z,1.83
2022-12-11T19:14:43.423Z,2.03
2022-12-11T19:17:29.644Z,1.97
2022-12-11T19:20:48.519Z,1.90
2022-12-11T19:23:24.395Z,1.97
2022-12-11T19:26:12.229Z,2.43
2022-12-11T19:29:00.266Z,1.60
2022-12-11T19:31:46.845Z,1.73
2022-12-11T19:34:33.284Z,1.70
2022-12-11T19:37:21.356Z,2.00
2022-12-11T19:40:09.397Z,1.03
2022-12-11T19:42:55.702Z,1.23
2022-12-11T19:45:42.644Z,1.37
2022-12-11T19:48:28.929Z,1.60
2022-12-11T19:51:16.765Z,1.60
2022-12-11T19:54:05.376Z,1.47
2022-12-11T19:56:51.532Z,1.60
2022-12-11T19:59:37.695Z,2.00
2022-12-11T20:02:23.841Z,2.17
2022-12-11T20:05:11.537Z,4.70
2022-12-11T20:08:20.534Z,2.87
2022-12-11T20:11:11.619Z,2.97
2022-12-11T20:14:01.219Z,8.70
2022-12-11T20:17:09.714Z,1.73
2022-12-11T20:19:53.961Z,5.20
2022-12-11T20:22:40.422Z,1.90
2022-12-11T20:25:27.245Z,1.23
2022-12-11T20:28:14.867Z,1.40
2022-12-11T20:31:04.647Z,1.53
2022-12-11T20:33:51.968Z,1.40
2022-12-11T20:36:38.085Z,1.27
2022-12-11T20:39:25.604Z,1.90
2022-12-11T20:42:11.920Z,1.83
2022-12-11T20:44:59.282Z,1.50
2022-12-11T20:47:45.627Z,1.37
2022-12-11T20:50:31.873Z,1.37
2022-12-11T20:53:18.235Z,1.63
2022-12-11T20:56:09.901Z,1.30
2022-12-11T20:58:56.426Z,1.23
2022-12-11T21:01:44.695Z,1.10
2022-12-11T21:04:31.635Z,1.30
2022-12-11T21:07:17.782Z,1.67
2022-12-11T21:10:04.281Z,1.80
2022-12-11T21:12:50.741Z,1.77
2022-12-11T21:15:37.146Z,1.13
2022-12-11T21:18:24.951Z,1.70
2022-12-11T21:21:11.722Z,1.30
2022-12-11T21:23:57.884Z,1.10
2022-12-11T21:26:44.409Z,1.40
2022-12-11T21:29:30.796Z,1.50
2022-12-11T21:32:17.212Z,1.70
2022-12-11T21:35:05.069Z,1.30
2022-12-11T21:37:51.760Z,1.30
2022-12-11T21:40:38.102Z,1.60
2022-12-11T21:43:24.824Z,2.07
2022-12-11T21:46:12.424Z,1.60
2022-12-11T21:48:59.186Z,2.70
2022-12-11T21:51:47.729Z,1.37
2022-12-11T21:54:33.941Z,2.97
2022-12-11T21:57:26.131Z,3.33
2022-12-11T22:00:13.913Z,2.53
2022-12-11T22:03:00.296Z,2.03
2022-12-11T22:05:46.796Z,2.30
2022-12-11T22:08:34.531Z,2.60
2022-12-11T22:11:22.257Z,1.93
2022-12-11T22:14:08.740Z,2.17
2022-12-11T22:16:55.138Z,2.10
2022-12-11T22:19:41.433Z,2.10
2022-12-11T22:22:27.666Z,1.97
2022-12-11T22:25:15.507Z,2.17
2022-12-11T22:28:01.647Z,2.43
2022-12-11T22:30:48.224Z,1.77
2022-12-11T22:33:34.623Z,1.77
2022-12-11T22:36:21.810Z,2.20
2022-12-11T22:39:08.157Z,2.67
2022-12-11T22:41:56.106Z,2.37
2022-12-11T22:44:42.395Z,3.13
2022-12-11T22:47:28.618Z,4.10
2022-12-11T22:50:15.222Z,3.67
2022-12-11T22:53:01.654Z,6.57
2022-12-11T22:55:48.105Z,5.10
2022-12-11T22:58:35.673Z,4.13
2022-12-11T23:01:23.100Z,3.87
2022-12-11T23:04:09.393Z,4.07
2022-12-11T23:06:55.636Z,3.47
2022-12-11T23:09:42.096Z,3.87
2022-12-11T23:12:28.752Z,3.83
2022-12-11T23:15:16.597Z,3.10
2022-12-11T23:18:02.766Z,2.43
2022-12-11T23:20:50.007Z,2.53
2022-12-11T23:23:36.348Z,2.73
2022-12-11T23:26:22.799Z,2.93
2022-12-11T23:29:09.559Z,2.50
2022-12-11T23:31:58.760Z,2.80
2022-12-11T23:34:44.862Z,2.43
2022-12-11T23:37:31.334Z,2.07
2022-12-11T23:40:17.421Z,1.77
2022-12-11T23:43:03.592Z,1.30
2022-12-11T23:45:50.025Z,2.30
2022-12-11T23:48:37.909Z,1.60
2022-12-11T23:51:24.958Z,2.23
2022-12-11T23:54:11.377Z,1.60
2022-12-11T23:56:57.845Z,1.97
2022-12-11T23:59:44.214Z,1.93
